createdAt,value
2023-04-21T00:00:45.574Z,101037.56
2023-04-21T00:03:13.650Z,101030.38
2023-04-21T00:05:42.692Z,101035.97
2023-04-21T00:08:10.842Z,101034.22
2023-04-21T00:10:38.682Z,101026.13
2023-04-21T00:13:06.847Z,101013.47
2023-04-21T00:15:36.225Z,101018.06
2023-04-21T00:18:04.779Z,101013.72
2023-04-21T00:20:33.227Z,101014.59
2023-04-21T00:23:01.421Z,101018.31
2023-04-21T00:25:29.305Z,101002.94
2023-04-21T00:27:57.212Z,101000.19
2023-04-21T00:30:25.248Z,100991.13
2023-04-21T00:32:54.938Z,100995.47
2023-04-21T00:35:23.856Z,100994.72
2023-04-21T00:37:51.675Z,100998.34
2023-04-21T00:40:19.608Z,100989.25
2023-04-21T00:42:47.478Z,100980.19
2023-04-21T00:45:15.903Z,100981.16
2023-04-21T00:47:43.881Z,100984.75
2023-04-21T00:50:14.091Z,100983.81
2023-04-21T00:52:43.818Z,100978.53
2023-04-21T00:55:11.874Z,100977.94
2023-04-21T00:57:39.781Z,100978.06
2023-04-21T01:00:10.509Z,100970.84
2023-04-21T01:02:40.102Z,100974.69
2023-04-21T01:05:09.267Z,100962.13
2023-04-21T01:07:40.874Z,100968.63
2023-04-21T01:10:09.907Z,100968.84
2023-04-21T01:12:44.353Z,100963.41
2023-04-21T01:15:12.987Z,100957.28
2023-04-21T01:17:41.645Z,100950.13
2023-04-21T01:20:12.303Z,100951.13
2023-04-21T01:22:44.565Z,100954.84
2023-04-21T01:25:12.783Z,100955.06
2023-04-21T01:27:40.676Z,100949.59
2023-04-21T01:30:10.301Z,100940.44
2023-04-21T01:32:38.451Z,100936.81
2023-04-21T01:35:07.415Z,100941.41
2023-04-21T01:37:35.320Z,100943.28
2023-04-21T01:40:08.715Z,100944.91
2023-04-21T01:42:42.598Z,100944.16
2023-04-21T01:45:11.611Z,100946.00
2023-04-21T01:47:39.586Z,100951.56
2023-04-21T01:50:08.562Z,100956.16
2023-04-21T01:52:36.409Z,100950.72
2023-04-21T01:55:06.397Z,100947.88
2023-04-21T01:57:35.173Z,100943.38
2023-04-21T02:00:03.140Z,100947.88
2023-04-21T02:02:31.188Z,100952.34
2023-04-21T02:04:59.163Z,100954.94
2023-04-21T02:07:28.284Z,100946.63
2023-04-21T02:09:56.099Z,100949.25
2023-04-21T02:12:25.474Z,100955.44
2023-04-21T02:14:53.310Z,100950.84
2023-04-21T02:17:21.093Z,100947.13
2023-04-21T02:19:49.139Z,100949.75
2023-04-21T02:22:16.936Z,100952.47
2023-04-21T02:24:44.941Z,100949.50
2023-04-21T02:27:13.489Z,100946.63
2023-04-21T02:29:42.853Z,100947.25
2023-04-21T02:32:22.166Z,100945.41
2023-04-21T02:34:53.401Z,100943.66
2023-04-21T02:37:21.356Z,100943.31
2023-04-21T02:39:49.209Z,100948.63
2023-04-21T02:42:17.091Z,100947.63
2023-04-21T02:44:46.506Z,100948.38
2023-04-21T02:47:17.143Z,100948.28
2023-04-21T02:49:45.164Z,100942.03
2023-04-21T02:52:13.578Z,100941.06
2023-04-21T02:54:41.612Z,100947.31
2023-04-21T02:57:10.069Z,100947.31
2023-04-21T02:59:37.894Z,100946.44
2023-04-21T03:02:07.152Z,100954.50
2023-04-21T03:04:39.358Z,100942.72
2023-04-21T03:07:12.489Z,100950.03
2023-04-21T03:09:40.572Z,100941.84
2023-04-21T03:12:08.346Z,100942.84
2023-04-21T03:14:37.226Z,100955.63
2023-04-21T03:17:05.030Z,100948.38
2023-04-21T03:19:34.548Z,100951.03
2023-04-21T03:22:02.372Z,100955.63
2023-04-21T03:24:30.745Z,100956.56
2023-04-21T03:26:59.347Z,100955.69
2023-04-21T03:29:28.175Z,100964.75
2023-04-21T03:31:56.054Z,100954.81
2023-04-21T03:34:24.698Z,100960.28
2023-04-21T03:36:54.151Z,100960.19
2023-04-21T03:39:23.019Z,100963.03
2023-04-21T03:41:53.166Z,100962.03
2023-04-21T03:44:21.371Z,100966.63
2023-04-21T03:46:49.163Z,100964.75
2023-04-21T03:49:17.004Z,100957.56
2023-04-21T03:51:44.830Z,100966.63
2023-04-21T03:54:14.006Z,100959.22
2023-04-21T03:56:41.876Z,100964.75
2023-04-21T03:59:09.737Z,100966.63
2023-04-21T04:01:37.592Z,100962.16
2023-04-21T04:04:05.801Z,100963.91
2023-04-21T04:06:35.507Z,100956.69
2023-04-21T04:09:04.653Z,100953.97
2023-04-21T04:11:33.883Z,100959.41
2023-04-21T04:14:01.725Z,100955.94
2023-04-21T04:16:29.918Z,100959.53
2023-04-21T04:18:58.076Z,100951.50
2023-04-21T04:21:27.070Z,100958.81
2023-04-21T04:23:55.000Z,100960.78
2023-04-21T04:26:24.828Z,100962.53
2023-04-21T04:28:56.310Z,100957.06
2023-04-21T04:31:25.649Z,100952.72
2023-04-21T04:33:55.275Z,100963.66
2023-04-21T04:36:23.762Z,100956.56
2023-04-21T04:38:51.688Z,100955.56
2023-04-21T04:41:20.908Z,100957.53
2023-04-21T04:43:48.858Z,100948.63
2023-04-21T04:46:20.484Z,100950.38
2023-04-21T04:48:48.710Z,100956.06
2023-04-21T04:51:17.008Z,100958.91
2023-04-21T04:53:44.958Z,100963.50
2023-04-21T04:56:12.839Z,100968.09
2023-04-21T04:58:40.979Z,100968.22
2023-04-21T05:01:13.562Z,100959.91
2023-04-21T05:03:43.008Z,100965.63
2023-04-21T05:06:11.299Z,100962.03
2023-04-21T05:08:40.230Z,100966.50
2023-04-21T05:11:08.696Z,100965.50
2023-04-21T05:13:39.587Z,100966.34
2023-04-21T05:16:10.130Z,100964.50
2023-04-21T05:18:38.330Z,100973.56
2023-04-21T05:21:07.754Z,100977.91
2023-04-21T05:23:35.913Z,100971.59
2023-04-21T05:26:04.661Z,100970.47
2023-04-21T05:28:33.268Z,100969.34
2023-04-21T05:31:01.306Z,100975.56
2023-04-21T05:33:31.834Z,100986.25
2023-04-21T05:36:00.208Z,100985.97
2023-04-21T05:38:29.472Z,100980.41
2023-04-21T05:40:57.558Z,100978.53
2023-04-21T05:43:25.446Z,100984.75
2023-04-21T05:45:53.519Z,100981.94
2023-04-21T05:48:21.593Z,100981.81
2023-04-21T05:50:49.607Z,100979.94
2023-04-21T05:53:17.969Z,100976.22
2023-04-21T05:55:47.532Z,100983.41
2023-04-21T05:58:15.535Z,100982.53
2023-04-21T06:00:47.887Z,100980.56
2023-04-21T06:03:17.188Z,100977.94
2023-04-21T06:05:45.350Z,100969.63
2023-04-21T06:08:13.488Z,100973.25
2023-04-21T06:10:41.385Z,100962.19
2023-04-21T06:13:10.761Z,100969.25
2023-04-21T06:15:38.664Z,100971.97
2023-04-21T06:18:06.903Z,100972.84
2023-04-21T06:20:35.013Z,100970.88
2023-04-21T06:23:03.047Z,100971.75
2023-04-21T06:25:31.237Z,100977.97
2023-04-21T06:27:59.378Z,100974.34
2023-04-21T06:30:28.871Z,100975.13
2023-04-21T06:32:56.938Z,100981.28
2023-04-21T06:35:24.881Z,100972.09
2023-04-21T06:37:53.151Z,100978.19
2023-04-21T06:40:21.202Z,100980.81
2023-04-21T06:42:49.143Z,100982.56
2023-04-21T06:45:17.165Z,100978.69
2023-04-21T06:47:46.888Z,100966.63
2023-04-21T06:50:14.812Z,100970.25
2023-04-21T06:52:42.822Z,100975.31
2023-04-21T06:55:11.143Z,100967.00
2023-04-21T06:57:39.318Z,100962.28
2023-04-21T07:00:13.926Z,100963.75
2023-04-21T07:02:42.409Z,100967.34
2023-04-21T07:05:11.834Z,100967.00
2023-04-21T07:07:39.751Z,100980.66
2023-04-21T07:10:08.502Z,100972.19
2023-04-21T07:12:36.727Z,100980.25
2023-04-21T07:15:05.216Z,100975.66
2023-04-21T07:17:33.139Z,100966.47
2023-04-21T07:20:01.050Z,100965.47
2023-04-21T07:22:30.662Z,100976.03
2023-04-21T07:24:58.749Z,100969.56
2023-04-21T07:27:28.095Z,100963.97
2023-04-21T07:29:55.961Z,100972.78
2023-04-21T07:32:23.991Z,100961.56
2023-04-21T07:34:51.899Z,100975.00
2023-04-21T07:37:19.942Z,100965.69
2023-04-21T07:39:49.200Z,100964.41
2023-04-21T07:42:17.014Z,100967.03
2023-04-21T07:44:44.887Z,100959.56
2023-04-21T07:47:12.706Z,100961.16
2023-04-21T07:49:40.660Z,100959.91
2023-04-21T07:52:08.846Z,100967.88
2023-04-21T07:54:36.699Z,100965.72
2023-04-21T07:57:07.185Z,100967.22
2023-04-21T07:59:35.523Z,100972.41
2023-04-21T08:02:03.934Z,100973.16
2023-04-21T08:04:32.649Z,100966.41
2023-04-21T08:07:01.980Z,100978.84
2023-04-21T08:12:20.932Z,100970.75
2023-04-21T08:14:50.854Z,100969.47
2023-04-21T08:17:19.184Z,100975.44
2023-04-21T08:19:47.185Z,100976.75
2023-04-21T08:22:18.081Z,100969.88
2023-04-21T08:24:46.469Z,100972.09
2023-04-21T08:27:14.622Z,100972.56
2023-04-21T08:29:44.464Z,100972.00
2023-04-21T08:32:12.840Z,100970.88
2023-04-21T08:34:41.592Z,100965.84
2023-04-21T08:37:09.855Z,100969.19
2023-04-21T08:39:37.791Z,100966.91
2023-04-21T08:42:06.838Z,100964.66
2023-04-21T08:44:34.688Z,100955.16
2023-04-21T08:47:04.688Z,100956.50
2023-04-21T08:49:34.545Z,100958.94
2023-04-21T08:52:02.973Z,100967.75
2023-04-21T08:54:40.719Z,100966.47
2023-04-21T08:57:15.942Z,100968.06
2023-04-21T08:59:45.231Z,100962.47
2023-04-21T09:02:17.217Z,100951.19
2023-04-21T09:04:47.313Z,100951.19
2023-04-21T09:07:36.004Z,100951.94
2023-04-21T09:10:07.313Z,100957.28
2023-04-21T09:12:35.953Z,100954.41
2023-04-21T09:15:06.445Z,100955.84
2023-04-21T09:17:37.245Z,100958.47
2023-04-21T09:20:19.830Z,100961.84
2023-04-21T09:22:49.757Z,100962.84
2023-04-21T09:25:18.640Z,100960.53
2023-04-21T09:27:47.118Z,100959.28
2023-04-21T09:30:19.799Z,100964.47
2023-04-21T09:32:51.319Z,100959.59
2023-04-21T09:35:23.156Z,100962.03
2023-04-21T09:37:56.988Z,100967.38
2023-04-21T09:40:37.039Z,100955.41
2023-04-21T09:43:05.350Z,100951.94
2023-04-21T09:45:40.088Z,100941.44
2023-04-21T09:48:12.432Z,100941.59
2023-04-21T09:51:22.015Z,100938.28
2023-04-21T09:53:30.622Z,100930.34
2023-04-21T09:56:00.651Z,100932.22
2023-04-21T09:58:40.459Z,100924.00
2023-04-21T10:01:10.459Z,100927.91
2023-04-21T10:03:45.113Z,100917.94
2023-04-21T10:06:13.540Z,100921.69
2023-04-21T10:08:42.386Z,100910.72
2023-04-21T10:11:10.423Z,100914.31
2023-04-21T10:13:39.130Z,100916.16
2023-04-21T10:16:23.505Z,100906.16
2023-04-21T10:18:59.494Z,100907.00
2023-04-21T10:21:28.676Z,100910.34
2023-04-21T10:23:59.248Z,100909.44
2023-04-21T10:26:33.652Z,100911.59
2023-04-21T10:29:02.973Z,100904.75
2023-04-21T10:31:34.693Z,100905.03
2023-04-21T10:34:21.434Z,100906.44
2023-04-21T10:37:13.016Z,100882.09
2023-04-21T10:39:48.275Z,100883.25
2023-04-21T10:42:23.062Z,100871.81
2023-04-21T10:45:04.862Z,100871.19
2023-04-21T10:47:38.409Z,100859.75
2023-04-21T10:50:29.663Z,100865.94
2023-04-21T10:53:00.561Z,100854.47
2023-04-21T10:55:30.667Z,100855.88
2023-04-21T10:58:02.613Z,100848.19
2023-04-21T11:00:30.595Z,100840.66
2023-04-21T11:03:00.701Z,100839.88
2023-04-21T11:05:36.596Z,100833.91
2023-04-21T11:08:11.355Z,100836.50
2023-04-21T11:10:56.928Z,100829.09
2023-04-21T11:13:26.934Z,100833.44
2023-04-21T11:16:06.805Z,100832.09
2023-04-21T11:18:45.625Z,100826.59
2023-04-21T11:21:18.388Z,100817.31
2023-04-21T11:23:51.244Z,100818.88
2023-04-21T11:26:20.394Z,100811.97
2023-04-21T11:28:51.256Z,100808.75
2023-04-21T11:31:19.414Z,100811.66
2023-04-21T11:33:47.488Z,100802.22
2023-04-21T11:36:16.845Z,100783.63
2023-04-21T11:38:44.754Z,100776.81
2023-04-21T11:41:12.695Z,100779.94
2023-04-21T11:43:40.571Z,100772.09
2023-04-21T11:46:18.939Z,100781.28
2023-04-21T11:48:47.377Z,100775.41
2023-04-21T11:51:22.207Z,100769.84
2023-04-21T11:53:50.653Z,100769.38
2023-04-21T11:56:21.757Z,100768.56
2023-04-21T11:58:52.086Z,100768.94
2023-04-21T12:01:21.580Z,100761.88
2023-04-21T12:03:54.095Z,100758.50
2023-04-21T12:06:24.683Z,100749.22
2023-04-21T12:08:57.953Z,100739.56
2023-04-21T12:11:28.136Z,100735.28
2023-04-21T12:13:57.965Z,100739.28
2023-04-21T12:16:28.395Z,100722.41
2023-04-21T12:18:57.627Z,100722.09
2023-04-21T12:21:30.436Z,100730.53
2023-04-21T12:23:58.729Z,100724.88
2023-04-21T12:26:26.610Z,100736.25
2023-04-21T12:28:54.846Z,100725.75
2023-04-21T12:31:22.839Z,100720.75
2023-04-21T12:33:50.942Z,100729.72
2023-04-21T12:36:18.858Z,100705.47
2023-04-21T12:38:48.248Z,100702.19
2023-04-21T12:41:16.227Z,100692.72
2023-04-21T12:43:44.313Z,100696.19
2023-04-21T12:46:12.408Z,100699.31
2023-04-21T12:48:40.272Z,100696.72
2023-04-21T12:51:08.257Z,100697.97
2023-04-21T12:53:36.813Z,100706.59
2023-04-21T12:56:07.071Z,100696.41
2023-04-21T12:58:34.993Z,100695.88
2023-04-21T13:01:03.003Z,100695.03
2023-04-21T13:03:31.089Z,100702.44
2023-04-21T13:05:59.342Z,100693.34
2023-04-21T13:08:27.450Z,100687.97
2023-04-21T13:10:55.727Z,100696.41
2023-04-21T13:13:25.558Z,100682.44
2023-04-21T13:15:53.801Z,100692.97
2023-04-21T13:18:21.973Z,100682.28
2023-04-21T13:20:49.931Z,100664.13
2023-04-21T13:23:19.539Z,100679.81
2023-04-21T13:25:48.197Z,100663.06
2023-04-21T13:28:16.968Z,100675.00
2023-04-21T13:30:46.619Z,100678.94
2023-04-21T13:33:14.996Z,100660.81
2023-04-21T13:35:44.671Z,100655.28
2023-04-21T13:38:13.056Z,100644.22
2023-04-21T13:43:17.724Z,100652.72
2023-04-21T13:45:48.256Z,100634.25
2023-04-21T13:50:44.064Z,100644.22
2023-04-21T13:53:14.092Z,100621.09
2023-04-21T13:55:42.758Z,100624.72
2023-04-21T13:58:11.071Z,100617.31
2023-04-21T14:00:39.771Z,100620.06
2023-04-21T14:03:10.196Z,100620.75
2023-04-21T14:05:38.883Z,100620.22
2023-04-21T14:08:10.239Z,100613.84
2023-04-21T14:10:38.262Z,100615.94
2023-04-21T14:13:06.378Z,100602.47
2023-04-21T14:15:34.660Z,100596.28
2023-04-21T14:18:02.694Z,100593.69
2023-04-21T14:20:32.257Z,100597.31
2023-04-21T14:23:00.402Z,100592.00
2023-04-21T14:25:31.257Z,100593.03
2023-04-21T14:28:00.561Z,100607.00
2023-04-21T14:30:28.430Z,100588.53
2023-04-21T14:32:56.464Z,100590.25
2023-04-21T14:35:24.490Z,100590.25
2023-04-21T14:37:55.402Z,100602.16
2023-04-21T14:40:23.958Z,100579.22
2023-04-21T14:42:53.952Z,100578.84
2023-04-21T14:45:22.200Z,100579.88
2023-04-21T14:47:54.891Z,100582.28
2023-04-21T14:50:23.300Z,100569.34
2023-04-21T14:52:51.281Z,100584.72
2023-04-21T14:55:20.760Z,100566.88
2023-04-21T14:57:48.639Z,100568.63
2023-04-21T15:00:17.508Z,100553.59
2023-04-21T15:02:45.622Z,100545.81
2023-04-21T15:05:13.768Z,100536.28
2023-04-21T15:07:42.945Z,100535.94
2023-04-21T15:10:11.842Z,100540.91
2023-04-21T15:12:41.877Z,100537.63
2023-04-21T15:15:10.481Z,100538.47
2023-04-21T15:17:38.591Z,100532.56
2023-04-21T15:20:08.080Z,100534.13
2023-04-21T15:22:35.970Z,100525.47
2023-04-21T15:25:04.388Z,100522.16
2023-04-21T15:27:32.690Z,100512.66
2023-04-21T15:30:04.015Z,100519.69
2023-04-21T15:32:34.464Z,100508.09
2023-04-21T15:35:02.603Z,100498.06
2023-04-21T15:37:33.159Z,100503.25
2023-04-21T15:40:01.283Z,100494.75
2023-04-21T15:42:29.236Z,100497.16
2023-04-21T15:44:58.119Z,100486.09
2023-04-21T15:47:27.598Z,100491.31
2023-04-21T15:49:55.711Z,100474.84
2023-04-21T15:52:23.700Z,100471.94
2023-04-21T15:54:52.212Z,100464.53
2023-04-21T15:57:20.363Z,100465.38
2023-04-21T15:59:49.024Z,100454.31
2023-04-21T16:02:17.329Z,100466.25
2023-04-21T16:04:47.645Z,100457.75
2023-04-21T16:07:16.098Z,100462.63
2023-04-21T16:09:44.101Z,100455.38
2023-04-21T16:12:12.296Z,100453.47
2023-04-21T16:14:54.339Z,100459.84
2023-04-21T16:17:27.695Z,100455.38
2023-04-21T16:19:57.202Z,100454.31
2023-04-21T16:22:25.204Z,100455.38
2023-04-21T16:24:54.234Z,100452.59
2023-04-21T16:27:22.165Z,100459.31
2023-04-21T16:29:52.897Z,100474.84
2023-04-21T16:32:20.918Z,100472.28
2023-04-21T16:34:49.100Z,100471.41
2023-04-21T16:37:19.031Z,100472.28
2023-04-21T16:39:47.062Z,100470.72
2023-04-21T16:42:15.130Z,100466.06
2023-04-21T16:44:43.201Z,100459.69
2023-04-21T16:47:11.462Z,100457.97
2023-04-21T16:49:43.618Z,100460.53
2023-04-21T16:52:12.246Z,100468.19
2023-04-21T16:54:41.836Z,100468.66
2023-04-21T16:57:09.940Z,100461.56
2023-04-21T16:59:38.081Z,100459.69
2023-04-21T17:02:06.303Z,100459.03
2023-04-21T17:04:37.341Z,100446.06
2023-04-21T17:07:07.411Z,100441.75
2023-04-21T17:09:35.316Z,100449.56
2023-04-21T17:12:04.976Z,100444.22
2023-04-21T17:14:36.103Z,100434.56
2023-04-21T17:17:04.290Z,100436.84
2023-04-21T17:19:32.253Z,100435.31
2023-04-21T17:22:00.403Z,100429.28
2023-04-21T17:24:33.098Z,100430.72
2023-04-21T17:27:07.810Z,100428.31
2023-04-21T17:29:35.734Z,100416.97
2023-04-21T17:32:05.088Z,100421.81
2023-04-21T17:34:33.271Z,100419.59
2023-04-21T17:37:02.525Z,100425.50
2023-04-21T17:39:30.536Z,100413.06
2023-04-21T17:42:02.017Z,100419.00
2023-04-21T17:44:33.779Z,100424.69
2023-04-21T17:47:02.186Z,100429.22
2023-04-21T17:49:30.206Z,100430.25
2023-04-21T17:51:58.184Z,100430.63
2023-04-21T17:54:26.454Z,100427.16
2023-04-21T17:56:54.582Z,100421.16
2023-04-21T17:59:24.564Z,100420.47
2023-04-21T18:01:54.978Z,100434.63
2023-04-21T18:04:24.977Z,100432.56
2023-04-21T18:06:53.183Z,100419.16
2023-04-21T18:09:21.279Z,100419.50
2023-04-21T18:11:49.220Z,100421.75
2023-04-21T18:14:17.645Z,100424.03
2023-04-21T18:16:45.670Z,100428.19
2023-04-21T18:19:14.982Z,100431.97
2023-04-21T18:21:42.954Z,100433.56
2023-04-21T18:24:10.949Z,100436.69
2023-04-21T18:26:39.278Z,100435.31
2023-04-21T18:29:07.481Z,100441.00
2023-04-21T18:31:35.754Z,100438.81
2023-04-21T18:34:04.938Z,100429.16
2023-04-21T18:36:35.721Z,100429.31
2023-04-21T18:39:05.156Z,100436.41
2023-04-21T18:41:33.459Z,100427.44
2023-04-21T18:44:01.530Z,100426.97
2023-04-21T18:46:29.538Z,100430.06
2023-04-21T18:48:57.610Z,100435.09
2023-04-21T18:51:27.435Z,100439.22
2023-04-21T18:53:56.832Z,100436.81
2023-04-21T18:56:24.950Z,100439.25
2023-04-21T18:58:52.969Z,100445.97
2023-04-21T19:01:21.008Z,100444.41
2023-04-21T19:03:49.374Z,100457.66
2023-04-21T19:06:17.522Z,100463.34
2023-04-21T19:08:45.588Z,100463.72
2023-04-21T19:11:15.894Z,100473.88
2023-04-21T19:13:43.902Z,100488.88
2023-04-21T19:16:12.688Z,100563.47
2023-04-21T19:18:41.533Z,100557.09
2023-04-21T19:21:12.712Z,100550.03
2023-04-21T19:23:41.278Z,100539.34
2023-04-21T19:26:09.970Z,100538.81
2023-04-21T19:28:41.865Z,100544.53
2023-04-21T19:31:10.146Z,100541.56
2023-04-21T19:33:37.953Z,100529.19
2023-04-21T19:36:06.587Z,100526.91
2023-04-21T19:38:34.632Z,100522.09
2023-04-21T19:41:02.612Z,100514.53
2023-04-21T19:43:30.491Z,100514.34
2023-04-21T19:45:59.804Z,100521.22
2023-04-21T19:48:27.773Z,100532.91
2023-04-21T19:50:56.031Z,100542.72
2023-04-21T19:53:23.832Z,100540.47
2023-04-21T19:55:52.822Z,100553.72
2023-04-21T19:58:36.363Z,100556.06
2023-04-21T20:01:09.446Z,100541.94
2023-04-21T20:03:37.950Z,100516.78
2023-04-21T20:06:06.537Z,100487.19
2023-04-21T20:08:35.560Z,100472.38
2023-04-21T20:11:03.598Z,100474.94
2023-04-21T20:13:31.476Z,100479.38
2023-04-21T20:15:59.433Z,100488.28
2023-04-21T20:18:29.162Z,100506.31
2023-04-21T20:20:57.118Z,100491.50
2023-04-21T20:23:25.051Z,100493.91
2023-04-21T20:25:52.923Z,100505.38
2023-04-21T20:28:20.824Z,100500.19
2023-04-21T20:30:48.836Z,100498.66
2023-04-21T20:33:18.043Z,100500.53
2023-04-21T20:35:47.330Z,100495.91
2023-04-21T20:38:15.965Z,100504.31
2023-04-21T20:40:44.127Z,100502.59
2023-04-21T20:43:12.332Z,100499.84
2023-04-21T20:45:41.340Z,100492.59
2023-04-21T20:48:09.280Z,100481.78
2023-04-21T20:50:37.393Z,100481.09
2023-04-21T20:53:08.838Z,100476.47
2023-04-21T20:55:37.248Z,100473.00
2023-04-21T20:58:05.574Z,100469.53
2023-04-21T21:00:34.688Z,100473.47
2023-04-21T21:03:03.937Z,100472.59
2023-04-21T21:05:34.085Z,100472.81
2023-04-21T21:08:02.087Z,100473.81
2023-04-21T21:10:31.407Z,100470.91
2023-04-21T21:12:59.671Z,100478.47
2023-04-21T21:15:28.822Z,100487.56
2023-04-21T21:17:57.816Z,100483.09
2023-04-21T21:20:26.016Z,100469.50
2023-04-21T21:22:54.090Z,100465.84
2023-04-21T21:25:22.128Z,100479.75
2023-04-21T21:27:51.406Z,100481.66
2023-04-21T21:30:19.264Z,100481.13
2023-04-21T21:32:47.739Z,100485.91
2023-04-21T21:35:15.796Z,100493.47
2023-04-21T21:37:43.638Z,100501.84
2023-04-21T21:40:12.188Z,100481.78
2023-04-21T21:42:39.950Z,100471.81
2023-04-21T21:45:11.053Z,100473.69
2023-04-21T21:47:43.052Z,100481.38
2023-04-21T21:50:13.108Z,100476.91
2023-04-21T21:52:41.103Z,100469.00
2023-04-21T21:55:09.866Z,100470.03
2023-04-21T21:57:37.970Z,100468.31
2023-04-21T22:00:08.167Z,100474.97
2023-04-21T22:02:37.796Z,100473.25
2023-04-21T22:05:06.193Z,100467.22
2023-04-21T22:07:35.401Z,100468.41
2023-04-21T22:10:03.721Z,100462.19
2023-04-21T22:12:32.442Z,100466.16
2023-04-21T22:15:00.340Z,100482.09
2023-04-21T22:17:29.688Z,100483.25
2023-04-21T22:19:58.971Z,100478.78
2023-04-21T22:22:26.861Z,100481.00
2023-04-21T22:24:54.679Z,100478.56
2023-04-21T22:27:22.569Z,100480.63
2023-04-21T22:29:50.952Z,100481.81
2023-04-21T22:32:18.805Z,100487.59
2023-04-21T22:34:46.618Z,100484.47
2023-04-21T22:37:15.880Z,100481.88
2023-04-21T22:39:43.651Z,100485.13
2023-04-21T22:42:11.414Z,100478.22
2023-04-21T22:44:39.618Z,100483.84
2023-04-21T22:47:07.561Z,100484.19
2023-04-21T22:49:35.537Z,100485.34
2023-04-21T22:52:03.958Z,100487.38
2023-04-21T22:54:33.110Z,100481.19
2023-04-21T22:57:02.135Z,100476.03
2023-04-21T22:59:30.028Z,100480.81
2023-04-21T23:01:57.880Z,100471.84
2023-04-21T23:04:25.836Z,100470.13
2023-04-21T23:06:53.780Z,100466.81
2023-04-21T23:09:21.589Z,100462.50
2023-04-21T23:11:50.781Z,100463.50
2023-04-21T23:14:18.630Z,100467.75
2023-04-21T23:16:46.507Z,100471.66
2023-04-21T23:19:14.379Z,100468.19
2023-04-21T23:21:42.293Z,100457.56
2023-04-21T23:24:10.055Z,100457.84
2023-04-21T23:26:37.824Z,100459.06
2023-04-21T23:29:07.016Z,100453.72
2023-04-21T23:31:34.836Z,100458.63
2023-04-21T23:34:02.687Z,100453.47
2023-04-21T23:36:31.865Z,100454.66
2023-04-21T23:38:59.827Z,100456.69
2023-04-21T23:41:27.788Z,100464.19
2023-04-21T23:43:55.625Z,100460.91
2023-04-21T23:46:24.839Z,100460.75
2023-04-21T23:48:52.691Z,100462.94
2023-04-21T23:51:20.868Z,100463.94
2023-04-21T23:53:48.932Z,100464.09
2023-04-21T23:56:16.859Z,100460.66
2023-04-21T23:58:44.980Z,100461.69
